createdAt,value
2022-11-16T00:02:17.156Z,4.97
2022-11-16T00:04:46.384Z,5.80
2022-11-16T00:07:15.581Z,6.10
2022-11-16T00:09:44.839Z,7.18
2022-11-16T00:12:14.148Z,7.63
2022-11-16T00:14:43.213Z,5.65
2022-11-16T00:17:12.317Z,7.75
2022-11-16T00:19:41.405Z,9.65
2022-11-16T00:22:10.489Z,7.32
2022-11-16T00:24:39.673Z,6.57
2022-11-16T00:27:08.694Z,7.63
2022-11-16T00:29:37.767Z,7.85
2022-11-16T00:32:06.957Z,7.20
2022-11-16T00:34:36.042Z,6.80
2022-11-16T00:37:05.162Z,7.07
2022-11-16T00:39:34.962Z,5.22
2022-11-16T00:42:04.111Z,6.07
2022-11-16T00:44:33.232Z,3.80
2022-11-16T00:47:02.380Z,5.00
2022-11-16T00:49:32.521Z,4.75
2022-11-16T00:52:01.586Z,3.85
2022-11-16T00:54:30.678Z,3.83
2022-11-16T00:56:59.837Z,3.25
2022-11-16T00:59:28.909Z,3.65
2022-11-16T01:01:57.990Z,3.15
2022-11-16T01:04:27.175Z,2.78
2022-11-16T01:06:56.295Z,2.85
2022-11-16T01:09:25.406Z,2.40
2022-11-16T01:12:13.649Z,3.30
2022-11-16T01:14:46.759Z,2.30
2022-11-16T01:17:17.116Z,2.92
2022-11-16T01:19:46.202Z,4.45
2022-11-16T01:22:15.378Z,2.97
2022-11-16T01:24:44.673Z,3.22
2022-11-16T01:27:14.058Z,3.30
2022-11-16T01:29:43.218Z,3.67
2022-11-16T01:32:16.432Z,4.38
2022-11-16T01:34:45.604Z,2.17
2022-11-16T01:37:14.850Z,3.78
2022-11-16T01:39:55.410Z,2.67
2022-11-16T01:42:31.935Z,3.05
2022-11-16T01:45:08.295Z,4.30
2022-11-16T01:47:37.569Z,3.70
2022-11-16T01:50:18.814Z,2.03
2022-11-16T01:53:00.991Z,1.90
2022-11-16T01:55:33.234Z,4.30
2022-11-16T01:58:05.232Z,2.30
2022-11-16T02:00:40.539Z,1.95
2022-11-16T02:03:09.619Z,2.05
2022-11-16T02:06:10.773Z,2.08
2022-11-16T02:09:44.143Z,2.72
2022-11-16T02:12:34.338Z,2.33
2022-11-16T02:15:22.504Z,2.55
2022-11-16T02:18:36.879Z,2.20
2022-11-16T02:21:42.420Z,3.38
2022-11-16T02:24:54.019Z,4.25
2022-11-16T02:27:42.692Z,1.95
2022-11-16T02:30:12.182Z,2.03
2022-11-16T02:33:16.544Z,2.03
2022-11-16T02:35:56.466Z,2.75
2022-11-16T02:38:36.462Z,1.52
2022-11-16T02:41:29.398Z,2.22
2022-11-16T02:44:27.121Z,1.90
2022-11-16T02:47:04.858Z,1.73
2022-11-16T02:49:42.801Z,2.38
2022-11-16T02:52:14.814Z,2.17
2022-11-16T02:54:43.987Z,2.30
2022-11-16T02:57:13.078Z,2.08
2022-11-16T02:59:48.173Z,1.45
2022-11-16T03:02:47.959Z,1.10
2022-11-16T03:05:32.891Z,1.40
2022-11-16T03:08:27.293Z,2.53
2022-11-16T03:11:21.387Z,1.98
2022-11-16T03:13:53.193Z,2.08
2022-11-16T03:16:32.825Z,2.58
2022-11-16T03:19:09.269Z,1.77
2022-11-16T03:22:00.851Z,1.85
2022-11-16T03:24:30.223Z,2.42
2022-11-16T03:27:46.153Z,1.80
2022-11-16T03:30:23.989Z,2.20
2022-11-16T03:33:26.773Z,1.33
2022-11-16T03:36:27.020Z,2.00
2022-11-16T03:39:00.458Z,2.08
2022-11-16T03:41:32.653Z,1.50
2022-11-16T03:44:03.080Z,2.00
2022-11-16T03:46:33.492Z,1.63
2022-11-16T03:49:03.785Z,1.73
2022-11-16T03:51:32.950Z,1.50
2022-11-16T03:54:02.082Z,2.15
2022-11-16T03:56:31.346Z,2.00
2022-11-16T03:59:00.433Z,1.65
2022-11-16T04:01:29.592Z,2.03
2022-11-16T04:03:58.885Z,2.45
2022-11-16T04:06:46.409Z,1.67
2022-11-16T04:09:33.675Z,1.23
2022-11-16T04:12:21.420Z,1.63
2022-11-16T04:15:09.032Z,0.93
2022-11-16T04:17:56.344Z,1.05
2022-11-16T04:20:43.851Z,1.63
2022-11-16T04:23:37.144Z,1.38
2022-11-16T04:26:10.250Z,1.30
2022-11-16T04:28:40.836Z,1.40
2022-11-16T04:31:28.159Z,0.95
2022-11-16T04:34:15.673Z,1.07
2022-11-16T04:37:03.083Z,0.88
2022-11-16T04:39:32.248Z,1.92
2022-11-16T04:42:16.402Z,1.42
2022-11-16T04:45:03.616Z,1.20
2022-11-16T04:47:32.766Z,1.30
2022-11-16T04:50:02.304Z,1.42
2022-11-16T04:52:31.682Z,1.35
2022-11-16T04:55:01.603Z,2.28
2022-11-16T04:57:30.733Z,1.02
2022-11-16T05:00:00.024Z,1.70
2022-11-16T05:02:29.195Z,2.00
2022-11-16T05:04:58.666Z,0.88
2022-11-16T05:07:28.608Z,1.58
2022-11-16T05:09:57.902Z,0.95
2022-11-16T05:12:29.605Z,2.67
2022-11-16T05:14:59.381Z,1.23
2022-11-16T05:17:30.343Z,2.08
2022-11-16T05:20:17.786Z,1.15
2022-11-16T05:22:53.128Z,1.40
2022-11-16T05:25:22.305Z,1.17
2022-11-16T05:27:51.436Z,1.17
2022-11-16T05:30:21.346Z,1.05
2022-11-16T05:32:50.545Z,2.22
2022-11-16T05:35:19.678Z,1.63
2022-11-16T05:37:48.835Z,1.80
2022-11-16T05:40:18.196Z,0.80
2022-11-16T05:42:47.359Z,1.13
2022-11-16T05:45:20.843Z,1.92
2022-11-16T05:47:50.393Z,1.27
2022-11-16T05:50:20.711Z,0.73
2022-11-16T05:52:50.003Z,1.90
2022-11-16T05:55:19.223Z,1.13
2022-11-16T05:57:48.420Z,1.42
2022-11-16T06:00:18.487Z,1.30
2022-11-16T06:02:47.719Z,1.30
2022-11-16T06:05:17.122Z,1.67
2022-11-16T06:07:46.283Z,1.60
2022-11-16T06:10:15.523Z,1.50
2022-11-16T06:12:44.738Z,0.73
2022-11-16T06:15:13.910Z,1.05
2022-11-16T06:17:43.132Z,1.10
2022-11-16T06:20:13.189Z,2.35
2022-11-16T06:22:42.478Z,1.10
2022-11-16T06:25:12.036Z,0.73
2022-11-16T06:27:41.691Z,14.30
2022-11-16T06:30:11.533Z,1.27
2022-11-16T06:32:41.934Z,0.93
2022-11-16T06:35:11.556Z,1.05
2022-11-16T06:37:40.941Z,1.38
2022-11-16T06:40:11.557Z,0.88
2022-11-16T06:42:40.940Z,0.82
2022-11-16T06:45:11.127Z,1.60
2022-11-16T06:47:40.375Z,1.15
2022-11-16T06:50:11.160Z,2.30
2022-11-16T06:52:40.419Z,2.13
2022-11-16T06:55:10.250Z,2.08
2022-11-16T06:57:39.470Z,1.42
2022-11-16T07:00:11.471Z,1.80
2022-11-16T07:02:41.835Z,0.82
2022-11-16T07:05:11.208Z,0.80
2022-11-16T07:07:40.412Z,1.60
2022-11-16T07:10:10.362Z,1.30
2022-11-16T07:12:39.821Z,1.05
2022-11-16T07:15:09.665Z,2.40
2022-11-16T07:17:38.898Z,1.05
2022-11-16T07:20:08.770Z,1.20
2022-11-16T07:22:38.024Z,2.10
2022-11-16T07:25:07.912Z,1.38
2022-11-16T07:27:37.185Z,1.27
2022-11-16T07:30:07.126Z,0.80
2022-11-16T07:32:36.546Z,0.85
2022-11-16T07:35:06.184Z,1.27
2022-11-16T07:37:35.440Z,1.05
2022-11-16T07:40:04.855Z,1.02
2022-11-16T07:42:34.312Z,1.25
2022-11-16T07:45:03.500Z,1.35
2022-11-16T07:47:38.933Z,1.20
2022-11-16T07:50:08.912Z,0.77
2022-11-16T07:52:38.664Z,1.58
2022-11-16T07:55:08.479Z,1.90
2022-11-16T07:57:37.701Z,1.02
2022-11-16T08:00:08.443Z,1.15
2022-11-16T08:02:37.674Z,0.63
2022-11-16T08:05:08.133Z,1.40
2022-11-16T08:07:37.359Z,0.93
2022-11-16T08:10:07.432Z,1.13
2022-11-16T08:12:36.675Z,0.90
2022-11-16T08:15:06.269Z,0.80
2022-11-16T08:17:35.479Z,1.77
2022-11-16T08:20:04.787Z,1.10
2022-11-16T08:22:33.943Z,2.92
2022-11-16T08:25:03.189Z,7.10
2022-11-16T08:27:34.277Z,0.68
2022-11-16T08:30:10.740Z,1.00
2022-11-16T08:32:40.396Z,70.30
2022-11-16T08:35:10.136Z,3.17
2022-11-16T08:37:39.331Z,1.30
2022-11-16T08:40:09.195Z,0.88
2022-11-16T08:42:43.330Z,1.30
2022-11-16T08:45:13.331Z,0.82
2022-11-16T08:47:42.566Z,0.75
2022-11-16T08:50:12.557Z,0.50
2022-11-16T08:52:42.986Z,0.70
2022-11-16T08:55:14.908Z,0.40
2022-11-16T08:57:44.018Z,0.50
2022-11-16T09:00:14.060Z,0.98
2022-11-16T09:02:43.165Z,0.80
2022-11-16T09:05:13.179Z,0.70
2022-11-16T09:07:44.392Z,0.98
2022-11-16T09:10:15.131Z,0.98
2022-11-16T09:12:44.363Z,0.70
2022-11-16T09:15:13.586Z,1.33
2022-11-16T09:17:42.841Z,1.27
2022-11-16T09:20:12.452Z,1.67
2022-11-16T09:22:41.608Z,2.75
2022-11-16T09:25:12.121Z,4.93
2022-11-16T09:27:41.145Z,4.75
2022-11-16T09:30:11.475Z,4.22
2022-11-16T09:32:40.790Z,2.70
2022-11-16T09:35:10.556Z,2.10
2022-11-16T09:37:39.869Z,1.95
2022-11-16T09:40:10.091Z,2.22
2022-11-16T09:43:07.634Z,2.00
2022-11-16T09:45:59.944Z,1.23
2022-11-16T09:48:30.328Z,0.88
2022-11-16T09:51:08.514Z,2.45
2022-11-16T09:54:17.500Z,1.50
2022-11-16T09:56:51.919Z,1.13
2022-11-16T09:59:33.154Z,7.28
2022-11-16T10:02:20.401Z,1.58
2022-11-16T10:05:04.148Z,1.58
2022-11-16T10:08:36.518Z,1.45
2022-11-16T10:11:20.709Z,1.00
2022-11-16T10:14:20.802Z,6.93
2022-11-16T10:17:08.342Z,2.63
2022-11-16T10:20:33.689Z,5.53
2022-11-16T10:23:15.236Z,4.60
2022-11-16T10:26:09.190Z,6.47
2022-11-16T10:29:20.981Z,5.70
2022-11-16T10:32:29.951Z,24.00
2022-11-16T10:35:13.966Z,16.30
2022-11-16T10:37:50.862Z,18.63
2022-11-16T10:40:43.202Z,9.82
2022-11-16T10:43:20.701Z,8.05
2022-11-16T10:46:18.709Z,5.95
2022-11-16T10:49:51.755Z,4.57
2022-11-16T10:52:21.004Z,4.50
2022-11-16T10:54:50.686Z,4.40
2022-11-16T10:57:20.299Z,3.80
2022-11-16T10:59:56.565Z,4.03
2022-11-16T11:02:37.931Z,3.88
2022-11-16T11:05:22.706Z,4.70
2022-11-16T11:08:13.505Z,4.05
2022-11-16T11:10:44.315Z,3.28
2022-11-16T11:13:13.407Z,4.35
2022-11-16T11:15:45.707Z,4.03
2022-11-16T11:18:30.140Z,3.85
2022-11-16T11:21:21.942Z,3.83
2022-11-16T11:24:10.601Z,7.80
2022-11-16T11:26:56.101Z,6.00
2022-11-16T11:29:30.209Z,6.50
2022-11-16T11:32:24.152Z,3.92
2022-11-16T11:35:00.945Z,4.53
2022-11-16T11:37:38.312Z,4.22
2022-11-16T11:40:21.956Z,4.50
2022-11-16T11:43:04.732Z,5.53
2022-11-16T11:46:19.934Z,8.10
2022-11-16T11:49:04.959Z,6.10
2022-11-16T11:51:44.638Z,5.43
2022-11-16T11:54:33.291Z,4.85
2022-11-16T11:57:05.251Z,6.97
2022-11-16T11:59:34.355Z,7.85
2022-11-16T12:02:12.798Z,7.72
2022-11-16T12:05:35.856Z,7.50
2022-11-16T12:08:55.109Z,10.15
2022-11-16T12:11:35.951Z,7.38
2022-11-16T12:14:41.224Z,7.97
2022-11-16T12:18:00.068Z,9.05
2022-11-16T12:20:58.585Z,10.20
2022-11-16T12:23:51.934Z,9.30
2022-11-16T12:27:10.951Z,9.25
2022-11-16T12:29:58.736Z,11.70
2022-11-16T12:32:48.868Z,10.05
2022-11-16T12:35:42.123Z,10.68
2022-11-16T12:38:28.837Z,9.77
2022-11-16T12:41:21.786Z,9.73
2022-11-16T12:44:25.798Z,10.63
2022-11-16T12:47:59.287Z,12.05
2022-11-16T12:50:39.988Z,12.43
2022-11-16T12:53:23.958Z,11.00
2022-11-16T12:56:21.762Z,10.68
2022-11-16T12:59:30.160Z,9.98
2022-11-16T13:02:44.119Z,10.85
2022-11-16T13:05:45.419Z,11.00
2022-11-16T13:08:47.149Z,12.43
2022-11-16T13:11:22.641Z,13.10
2022-11-16T13:14:00.040Z,11.98
2022-11-16T13:16:31.080Z,10.90
2022-11-16T13:19:05.152Z,12.25
2022-11-16T13:21:53.193Z,11.55
2022-11-16T13:24:50.766Z,11.93
2022-11-16T13:27:45.860Z,10.93
2022-11-16T13:30:30.432Z,10.95
2022-11-16T13:33:50.464Z,11.00
2022-11-16T13:36:38.105Z,12.70
2022-11-16T13:39:09.552Z,10.95
2022-11-16T13:42:07.470Z,10.63
2022-11-16T13:44:37.423Z,11.60
2022-11-16T13:47:22.096Z,10.43
2022-11-16T13:50:05.436Z,9.98
2022-11-16T13:53:40.869Z,13.20
2022-11-16T13:55:48.889Z,15.68
2022-11-16T13:58:24.055Z,15.60
2022-11-16T14:01:18.454Z,15.65
2022-11-16T14:03:52.351Z,16.20
2022-11-16T14:06:21.469Z,16.25
2022-11-16T14:09:01.033Z,17.85
2022-11-16T14:11:40.045Z,16.17
2022-11-16T14:14:33.848Z,16.88
2022-11-16T14:17:03.080Z,15.77
2022-11-16T14:19:51.386Z,17.92
2022-11-16T14:22:32.293Z,16.33
2022-11-16T14:25:34.190Z,14.05
2022-11-16T14:28:24.396Z,15.80
2022-11-16T14:31:16.706Z,15.88
2022-11-16T14:33:56.709Z,16.27
2022-11-16T14:36:47.458Z,17.73
2022-11-16T14:39:34.812Z,17.38
2022-11-16T14:42:48.100Z,20.37
2022-11-16T14:45:32.270Z,20.83
2022-11-16T14:48:23.093Z,18.60
2022-11-16T14:51:28.510Z,20.77
2022-11-16T14:54:22.831Z,20.67
2022-11-16T14:57:08.862Z,20.13
2022-11-16T14:59:38.029Z,19.55
2022-11-16T15:02:23.634Z,19.60
2022-11-16T15:04:55.246Z,17.50
2022-11-16T15:07:26.060Z,17.15
2022-11-16T15:10:01.665Z,16.73
2022-11-16T15:12:43.039Z,17.48
2022-11-16T15:15:16.836Z,17.42
2022-11-16T15:17:54.367Z,15.27
2022-11-16T15:20:30.987Z,16.70
2022-11-16T15:23:03.203Z,14.27
2022-11-16T15:25:58.223Z,14.20
2022-11-16T15:28:35.603Z,14.00
2022-11-16T15:31:08.111Z,13.35
2022-11-16T15:33:47.207Z,14.95
2022-11-16T15:36:34.048Z,14.15
2022-11-16T15:39:06.533Z,14.63
2022-11-16T15:41:40.005Z,14.70
2022-11-16T15:44:15.176Z,14.02
2022-11-16T15:46:56.241Z,13.75
2022-11-16T15:49:34.851Z,13.48
2022-11-16T15:52:06.221Z,14.40
2022-11-16T15:54:55.506Z,14.70
2022-11-16T15:57:26.425Z,13.95
2022-11-16T15:59:58.357Z,13.20
2022-11-16T16:02:32.626Z,14.85
2022-11-16T16:05:02.016Z,13.68
2022-11-16T16:08:00.457Z,14.02
2022-11-16T16:10:29.890Z,12.38
2022-11-16T16:13:02.509Z,12.75
2022-11-16T16:15:39.455Z,12.77
2022-11-16T16:18:40.407Z,11.85
2022-11-16T16:21:11.665Z,13.60
2022-11-16T16:23:56.808Z,13.65
2022-11-16T16:26:26.184Z,12.95
2022-11-16T16:28:55.327Z,13.15
2022-11-16T16:31:24.560Z,13.43
2022-11-16T16:33:53.880Z,14.63
2022-11-16T16:36:23.080Z,12.73
2022-11-16T16:38:53.719Z,12.82
2022-11-16T16:41:24.596Z,14.23
2022-11-16T16:43:54.374Z,14.18
2022-11-16T16:46:23.512Z,13.80
2022-11-16T16:48:52.652Z,24.10
2022-11-16T16:51:21.813Z,35.13
2022-11-16T16:53:50.983Z,17.00
2022-11-16T16:56:20.889Z,13.52
2022-11-16T16:58:50.057Z,12.50
2022-11-16T17:01:19.500Z,13.00
2022-11-16T17:03:48.999Z,13.27
2022-11-16T17:06:18.205Z,13.10
2022-11-16T17:08:47.384Z,15.40
2022-11-16T17:11:17.473Z,13.63
2022-11-16T17:13:49.209Z,15.25
2022-11-16T17:16:18.608Z,14.00
2022-11-16T17:18:48.715Z,15.38
2022-11-16T17:21:17.842Z,14.95
2022-11-16T17:23:47.006Z,13.88
2022-11-16T17:26:16.256Z,13.00
2022-11-16T17:28:45.417Z,13.32
2022-11-16T17:31:15.801Z,13.52
2022-11-16T17:33:45.650Z,12.93
2022-11-16T17:36:15.767Z,13.07
2022-11-16T17:38:45.341Z,13.35
2022-11-16T17:41:18.641Z,13.38
2022-11-16T17:43:49.140Z,12.98
2022-11-16T17:46:22.200Z,11.95
2022-11-16T17:48:52.109Z,13.73
2022-11-16T17:51:26.496Z,13.48
2022-11-16T17:54:01.173Z,12.93
2022-11-16T17:56:31.094Z,13.27
2022-11-16T17:59:00.337Z,14.20
2022-11-16T18:01:29.681Z,15.68
2022-11-16T18:04:00.525Z,15.73
2022-11-16T18:06:30.172Z,15.60
2022-11-16T18:08:59.349Z,13.82
2022-11-16T18:11:30.055Z,13.85
2022-11-16T18:14:04.794Z,14.38
2022-11-16T18:16:35.644Z,13.60
2022-11-16T18:19:08.226Z,14.40
2022-11-16T18:21:43.903Z,13.13
2022-11-16T18:24:14.730Z,13.93
2022-11-16T18:26:44.348Z,13.77
2022-11-16T18:29:16.665Z,13.52
2022-11-16T18:31:46.080Z,13.85
2022-11-16T18:34:16.440Z,12.50
2022-11-16T18:36:47.329Z,13.00
2022-11-16T18:39:16.492Z,15.13
2022-11-16T18:41:53.356Z,12.57
2022-11-16T18:46:52.872Z,11.10
2022-11-16T18:49:21.985Z,11.38
2022-11-16T18:51:51.648Z,11.00
2022-11-16T18:54:20.882Z,10.48
2022-11-16T18:56:50.061Z,11.02
2022-11-16T18:59:19.635Z,10.57
2022-11-16T19:01:48.903Z,10.07
2022-11-16T19:04:18.066Z,10.35
2022-11-16T19:06:47.578Z,9.70
2022-11-16T19:09:16.737Z,9.07
2022-11-16T19:11:46.196Z,9.15
2022-11-16T19:14:15.318Z,8.90
2022-11-16T19:16:54.149Z,9.93
2022-11-16T19:19:28.634Z,9.25
2022-11-16T19:21:58.385Z,9.35
2022-11-16T19:24:27.600Z,8.88
2022-11-16T19:26:56.745Z,9.00
2022-11-16T19:29:26.036Z,9.20
2022-11-16T19:31:55.152Z,10.25
2022-11-16T19:34:27.737Z,8.85
2022-11-16T19:36:59.614Z,10.27
2022-11-16T19:39:29.093Z,8.95
2022-11-16T19:41:58.257Z,8.65
2022-11-16T19:44:27.483Z,9.65
2022-11-16T19:46:57.890Z,9.40
2022-11-16T19:49:27.542Z,8.35
2022-11-16T19:51:57.371Z,8.30
2022-11-16T19:54:27.376Z,9.00
2022-11-16T19:56:56.609Z,8.75
2022-11-16T19:59:25.757Z,8.98
2022-11-16T20:01:54.930Z,8.50
2022-11-16T20:04:26.395Z,8.77
2022-11-16T20:06:55.615Z,8.98
2022-11-16T20:09:24.886Z,7.97
2022-11-16T20:11:54.251Z,8.50
2022-11-16T20:14:23.467Z,7.97
2022-11-16T20:16:52.700Z,7.85
2022-11-16T20:19:22.372Z,7.63
2022-11-16T20:21:52.061Z,7.90
2022-11-16T20:24:21.298Z,8.32
2022-11-16T20:26:51.099Z,7.97
2022-11-16T20:29:21.498Z,7.03
2022-11-16T20:31:50.724Z,7.70
2022-11-16T20:34:21.706Z,7.53
2022-11-16T20:36:52.194Z,8.85
2022-11-16T20:39:22.738Z,7.53
2022-11-16T20:41:51.910Z,7.50
2022-11-16T20:44:24.436Z,8.43
2022-11-16T20:46:53.821Z,7.35
2022-11-16T20:49:23.030Z,7.55
2022-11-16T20:51:52.609Z,6.78
2022-11-16T20:54:22.000Z,7.25
2022-11-16T20:56:51.510Z,7.85
2022-11-16T20:59:20.903Z,8.90
2022-11-16T21:01:53.352Z,7.65
2022-11-16T21:04:23.010Z,7.78
2022-11-16T21:06:52.167Z,7.22
2022-11-16T21:09:23.644Z,6.15
2022-11-16T21:12:11.200Z,6.72
2022-11-16T21:14:40.379Z,7.00
2022-11-16T21:17:09.505Z,6.43
2022-11-16T21:19:38.671Z,6.60
2022-11-16T21:22:07.816Z,6.32
2022-11-16T21:24:36.974Z,7.15
2022-11-16T21:27:06.194Z,6.22
2022-11-16T21:29:35.379Z,7.00
2022-11-16T21:32:04.614Z,5.35
2022-11-16T21:34:39.782Z,5.57
2022-11-16T21:37:09.401Z,5.32
2022-11-16T21:39:38.598Z,6.07
2022-11-16T21:42:07.884Z,6.00
2022-11-16T21:44:45.982Z,5.35
2022-11-16T21:47:16.055Z,5.07
2022-11-16T21:50:08.690Z,5.38
2022-11-16T21:52:34.368Z,5.95
2022-11-16T21:55:03.524Z,5.35
2022-11-16T21:57:32.708Z,5.78
2022-11-16T22:00:02.150Z,4.80
2022-11-16T22:02:31.283Z,5.57
2022-11-16T22:05:18.523Z,5.00
2022-11-16T22:07:47.708Z,4.75
2022-11-16T22:10:16.963Z,3.88
2022-11-16T22:12:46.120Z,4.68
2022-11-16T22:15:15.463Z,4.10
2022-11-16T22:17:45.588Z,3.67
2022-11-16T22:20:14.806Z,4.70
2022-11-16T22:22:44.075Z,4.20
2022-11-16T22:25:14.852Z,5.20
2022-11-16T22:28:06.010Z,4.82
2022-11-16T22:30:33.291Z,4.60
2022-11-16T22:33:02.450Z,3.65
2022-11-16T22:35:31.601Z,4.32
2022-11-16T22:38:00.899Z,4.50
2022-11-16T22:40:30.056Z,4.13
2022-11-16T22:43:02.194Z,4.28
2022-11-16T22:45:31.373Z,4.00
2022-11-16T22:48:00.520Z,3.90
2022-11-16T22:50:30.405Z,4.50
2022-11-16T22:53:00.843Z,4.38
2022-11-16T22:55:30.032Z,4.72
2022-11-16T22:57:59.089Z,4.20
2022-11-16T23:00:28.141Z,4.20
2022-11-16T23:02:57.261Z,4.03
2022-11-16T23:05:26.397Z,4.22
2022-11-16T23:07:58.413Z,4.75
2022-11-16T23:10:27.493Z,4.35
2022-11-16T23:13:14.747Z,4.60
2022-11-16T23:15:49.788Z,6.07
2022-11-16T23:18:20.635Z,7.40
2022-11-16T23:21:07.861Z,8.18
2022-11-16T23:23:55.432Z,8.52
2022-11-16T23:26:44.579Z,9.13
2022-11-16T23:29:14.179Z,10.20
2022-11-16T23:31:43.234Z,9.75
2022-11-16T23:34:12.334Z,10.52
2022-11-16T23:36:41.397Z,9.65
2022-11-16T23:39:10.531Z,8.55
2022-11-16T23:41:57.729Z,9.27
2022-11-16T23:44:26.874Z,8.73
2022-11-16T23:46:55.918Z,7.32
2022-11-16T23:49:25.013Z,7.97
2022-11-16T23:51:54.532Z,7.78
2022-11-16T23:54:23.697Z,8.43
2022-11-16T23:56:52.874Z,7.70
2022-11-16T23:59:22.017Z,7.05
